sensor_id;sensor_type;location;lat;lon;timestamp;P1;durP1;ratioP1;P2;durP2;ratioP2
48241;SDS011;34041;51.812;4.622;2023-03-31T00:00:06;7.93;;;2.45;;
48241;SDS011;34041;51.812;4.622;2023-03-31T00:03:11;12.85;;;3.40;;
48241;SDS011;34041;51.812;4.622;2023-03-31T00:06:12;7.18;;;2.47;;
48241;SDS011;34041;51.812;4.622;2023-03-31T00:09:16;5.43;;;1.95;;
48241;SDS011;34041;51.812;4.622;2023-03-31T00:12:17;7.78;;;3.42;;
48241;SDS011;34041;51.812;4.622;2023-03-31T00:15:18;7.77;;;2.43;;
48241;SDS011;34041;51.812;4.622;2023-03-31T00:18:18;7.97;;;2.85;;
48241;SDS011;34041;51.812;4.622;2023-03-31T00:21:19;6.90;;;2.53;;
48241;SDS011;34041;51.812;4.622;2023-03-31T00:24:32;8.82;;;2.17;;
48241;SDS011;34041;51.812;4.622;2023-03-31T00:27:33;5.68;;;1.80;;
48241;SDS011;34041;51.812;4.622;2023-03-31T00:30:33;10.17;;;2.77;;
48241;SDS011;34041;51.812;4.622;2023-03-31T00:33:33;6.43;;;2.07;;
48241;SDS011;34041;51.812;4.622;2023-03-31T00:36:33;8.38;;;3.13;;
48241;SDS011;34041;51.812;4.622;2023-03-31T00:39:35;6.43;;;2.40;;
48241;SDS011;34041;51.812;4.622;2023-03-31T00:42:40;7.38;;;2.53;;
48241;SDS011;34041;51.812;4.622;2023-03-31T00:45:40;6.00;;;2.03;;
48241;SDS011;34041;51.812;4.622;2023-03-31T00:48:50;4.05;;;1.70;;
48241;SDS011;34041;51.812;4.622;2023-03-31T00:51:53;5.78;;;1.65;;
48241;SDS011;34041;51.812;4.622;2023-03-31T00:54:55;6.57;;;2.42;;
48241;SDS011;34041;51.812;4.622;2023-03-31T00:57:56;6.75;;;2.30;;
48241;SDS011;34041;51.812;4.622;2023-03-31T01:00:57;4.90;;;1.83;;
48241;SDS011;34041;51.812;4.622;2023-03-31T01:03:59;5.55;;;1.70;;
48241;SDS011;34041;51.812;4.622;2023-03-31T01:07:04;7.53;;;2.30;;
48241;SDS011;34041;51.812;4.622;2023-03-31T01:10:08;5.78;;;2.38;;
48241;SDS011;34041;51.812;4.622;2023-03-31T01:13:09;7.03;;;2.25;;
48241;SDS011;34041;51.812;4.622;2023-03-31T01:16:10;5.70;;;1.52;;
48241;SDS011;34041;51.812;4.622;2023-03-31T01:19:18;5.40;;;1.60;;
48241;SDS011;34041;51.812;4.622;2023-03-31T01:22:34;8.10;;;1.83;;
48241;SDS011;34041;51.812;4.622;2023-03-31T01:35:34;7.05;;;2.00;;
48241;SDS011;34041;51.812;4.622;2023-03-31T01:45:21;6.32;;;2.22;;
48241;SDS011;34041;51.812;4.622;2023-03-31T01:48:27;4.80;;;2.08;;
48241;SDS011;34041;51.812;4.622;2023-03-31T01:51:41;5.10;;;2.00;;
48241;SDS011;34041;51.812;4.622;2023-03-31T01:54:48;3.88;;;1.58;;
48241;SDS011;34041;51.812;4.622;2023-03-31T01:58:15;6.05;;;2.28;;
48241;SDS011;34041;51.812;4.622;2023-03-31T02:01:24;7.57;;;2.22;;
48241;SDS011;34041;51.812;4.622;2023-03-31T02:04:28;5.30;;;1.92;;
48241;SDS011;34041;51.812;4.622;2023-03-31T02:07:34;6.63;;;2.33;;
48241;SDS011;34041;51.812;4.622;2023-03-31T02:10:36;4.82;;;1.83;;
48241;SDS011;34041;51.812;4.622;2023-03-31T02:13:38;6.68;;;2.10;;
48241;SDS011;34041;51.812;4.622;2023-03-31T02:16:41;3.25;;;1.65;;
48241;SDS011;34041;51.812;4.622;2023-03-31T02:19:47;5.22;;;1.92;;
48241;SDS011;34041;51.812;4.622;2023-03-31T02:22:49;4.68;;;1.42;;
48241;SDS011;34041;51.812;4.622;2023-03-31T02:25:52;5.30;;;1.95;;
48241;SDS011;34041;51.812;4.622;2023-03-31T02:28:53;4.93;;;1.95;;
48241;SDS011;34041;51.812;4.622;2023-03-31T02:31:59;5.77;;;1.80;;
48241;SDS011;34041;51.812;4.622;2023-03-31T02:35:03;4.72;;;1.75;;
48241;SDS011;34041;51.812;4.622;2023-03-31T02:38:05;6.03;;;1.40;;
48241;SDS011;34041;51.812;4.622;2023-03-31T02:41:06;6.45;;;1.73;;
48241;SDS011;34041;51.812;4.622;2023-03-31T02:44:06;5.85;;;1.70;;
48241;SDS011;34041;51.812;4.622;2023-03-31T02:47:08;6.82;;;1.90;;
48241;SDS011;34041;51.812;4.622;2023-03-31T02:50:10;6.45;;;2.08;;
48241;SDS011;34041;51.812;4.622;2023-03-31T02:53:25;6.90;;;1.87;;
48241;SDS011;34041;51.812;4.622;2023-03-31T02:56:50;6.53;;;2.28;;
48241;SDS011;34041;51.812;4.622;2023-03-31T03:00:03;6.88;;;2.20;;
48241;SDS011;34041;51.812;4.622;2023-03-31T03:13:07;8.57;;;1.73;;
48241;SDS011;34041;51.812;4.622;2023-03-31T03:16:12;4.70;;;1.52;;
48241;SDS011;34041;51.812;4.622;2023-03-31T03:19:18;5.18;;;1.30;;
48241;SDS011;34041;51.812;4.622;2023-03-31T03:22:19;5.70;;;2.08;;
48241;SDS011;34041;51.812;4.622;2023-03-31T03:25:19;5.40;;;1.80;;
48241;SDS011;34041;51.812;4.622;2023-03-31T03:28:19;4.30;;;1.50;;
48241;SDS011;34041;51.812;4.622;2023-03-31T03:31:20;5.97;;;1.75;;
48241;SDS011;34041;51.812;4.622;2023-03-31T03:34:22;3.45;;;1.48;;
48241;SDS011;34041;51.812;4.622;2023-03-31T03:37:24;7.07;;;2.05;;
48241;SDS011;34041;51.812;4.622;2023-03-31T03:40:24;4.53;;;1.30;;
48241;SDS011;34041;51.812;4.622;2023-03-31T03:43:25;3.00;;;1.30;;
48241;SDS011;34041;51.812;4.622;2023-03-31T03:46:25;5.57;;;1.70;;
48241;SDS011;34041;51.812;4.622;2023-03-31T03:49:26;4.78;;;1.88;;
48241;SDS011;34041;51.812;4.622;2023-03-31T03:52:26;4.47;;;1.40;;
48241;SDS011;34041;51.812;4.622;2023-03-31T03:55:26;5.43;;;1.92;;
48241;SDS011;34041;51.812;4.622;2023-03-31T03:58:27;5.13;;;1.65;;
48241;SDS011;34041;51.812;4.622;2023-03-31T04:01:28;4.33;;;1.60;;
48241;SDS011;34041;51.812;4.622;2023-03-31T04:04:28;5.43;;;1.73;;
48241;SDS011;34041;51.812;4.622;2023-03-31T04:07:28;3.95;;;1.70;;
48241;SDS011;34041;51.812;4.622;2023-03-31T04:10:28;4.93;;;1.63;;
48241;SDS011;34041;51.812;4.622;2023-03-31T04:13:29;5.22;;;2.17;;
48241;SDS011;34041;51.812;4.622;2023-03-31T04:16:29;5.38;;;1.85;;
48241;SDS011;34041;51.812;4.622;2023-03-31T04:19:31;3.70;;;2.08;;
48241;SDS011;34041;51.812;4.622;2023-03-31T04:22:31;6.47;;;2.07;;
48241;SDS011;34041;51.812;4.622;2023-03-31T04:25:34;7.18;;;1.98;;
48241;SDS011;34041;51.812;4.622;2023-03-31T04:28:37;7.25;;;2.13;;
48241;SDS011;34041;51.812;4.622;2023-03-31T04:31:42;5.57;;;1.73;;
48241;SDS011;34041;51.812;4.622;2023-03-31T04:34:42;4.70;;;1.35;;
48241;SDS011;34041;51.812;4.622;2023-03-31T04:37:48;5.80;;;1.40;;
48241;SDS011;34041;51.812;4.622;2023-03-31T04:40:49;5.82;;;1.65;;
48241;SDS011;34041;51.812;4.622;2023-03-31T04:43:50;4.43;;;1.63;;
48241;SDS011;34041;51.812;4.622;2023-03-31T04:46:50;5.33;;;1.60;;
48241;SDS011;34041;51.812;4.622;2023-03-31T04:49:50;5.38;;;1.55;;
48241;SDS011;34041;51.812;4.622;2023-03-31T04:52:50;4.83;;;1.63;;
48241;SDS011;34041;51.812;4.622;2023-03-31T04:55:50;4.60;;;1.70;;
48241;SDS011;34041;51.812;4.622;2023-03-31T04:58:51;3.20;;;1.30;;
48241;SDS011;34041;51.812;4.622;2023-03-31T05:01:51;3.40;;;1.77;;
48241;SDS011;34041;51.812;4.622;2023-03-31T05:04:51;3.40;;;1.42;;
48241;SDS011;34041;51.812;4.622;2023-03-31T05:07:51;6.05;;;1.40;;
48241;SDS011;34041;51.812;4.622;2023-03-31T05:10:52;2.70;;;1.13;;
48241;SDS011;34041;51.812;4.622;2023-03-31T05:13:52;2.75;;;1.10;;
48241;SDS011;34041;51.812;4.622;2023-03-31T05:16:54;4.77;;;1.53;;
48241;SDS011;34041;51.812;4.622;2023-03-31T05:19:56;2.28;;;1.02;;
48241;SDS011;34041;51.812;4.622;2023-03-31T05:22:57;3.67;;;1.43;;
48241;SDS011;34041;51.812;4.622;2023-03-31T05:25:58;7.38;;;1.92;;
48241;SDS011;34041;51.812;4.622;2023-03-31T05:28:58;2.42;;;1.30;;
48241;SDS011;34041;51.812;4.622;2023-03-31T05:31:58;3.83;;;1.10;;
48241;SDS011;34041;51.812;4.622;2023-03-31T05:34:58;4.20;;;1.40;;
48241;SDS011;34041;51.812;4.622;2023-03-31T05:37:58;3.90;;;1.17;;
48241;SDS011;34041;51.812;4.622;2023-03-31T05:40:59;2.50;;;1.08;;
48241;SDS011;34041;51.812;4.622;2023-03-31T05:43:59;5.03;;;1.77;;
48241;SDS011;34041;51.812;4.622;2023-03-31T05:47:01;4.43;;;1.83;;
48241;SDS011;34041;51.812;4.622;2023-03-31T05:50:01;4.28;;;1.10;;
48241;SDS011;34041;51.812;4.622;2023-03-31T05:53:06;2.95;;;1.30;;
48241;SDS011;34041;51.812;4.622;2023-03-31T05:56:06;2.83;;;1.10;;
48241;SDS011;34041;51.812;4.622;2023-03-31T05:59:07;5.95;;;1.98;;
48241;SDS011;34041;51.812;4.622;2023-03-31T06:02:07;3.97;;;1.05;;
48241;SDS011;34041;51.812;4.622;2023-03-31T06:05:10;3.72;;;1.58;;
48241;SDS011;34041;51.812;4.622;2023-03-31T06:08:11;3.75;;;1.50;;
48241;SDS011;34041;51.812;4.622;2023-03-31T06:11:12;3.23;;;1.43;;
48241;SDS011;34041;51.812;4.622;2023-03-31T06:14:13;3.08;;;1.15;;
48241;SDS011;34041;51.812;4.622;2023-03-31T06:17:13;2.63;;;1.37;;
48241;SDS011;34041;51.812;4.622;2023-03-31T06:20:13;1.63;;;0.93;;
48241;SDS011;34041;51.812;4.622;2023-03-31T06:23:14;2.72;;;1.23;;
48241;SDS011;34041;51.812;4.622;2023-03-31T06:26:16;3.90;;;1.30;;
48241;SDS011;34041;51.812;4.622;2023-03-31T06:29:16;2.22;;;1.23;;
48241;SDS011;34041;51.812;4.622;2023-03-31T06:32:16;2.73;;;1.37;;
48241;SDS011;34041;51.812;4.622;2023-03-31T06:35:17;1.40;;;0.67;;
48241;SDS011;34041;51.812;4.622;2023-03-31T06:38:17;3.33;;;1.00;;
48241;SDS011;34041;51.812;4.622;2023-03-31T06:41:17;1.20;;;0.70;;
48241;SDS011;34041;51.812;4.622;2023-03-31T06:44:19;3.28;;;1.08;;
48241;SDS011;34041;51.812;4.622;2023-03-31T06:47:22;1.77;;;0.88;;
48241;SDS011;34041;51.812;4.622;2023-03-31T06:50:22;3.13;;;1.10;;
48241;SDS011;34041;51.812;4.622;2023-03-31T06:53:22;3.07;;;0.80;;
48241;SDS011;34041;51.812;4.622;2023-03-31T06:56:22;3.97;;;1.27;;
48241;SDS011;34041;51.812;4.622;2023-03-31T06:59:23;2.75;;;1.02;;
48241;SDS011;34041;51.812;4.622;2023-03-31T07:02:23;2.50;;;1.10;;
48241;SDS011;34041;51.812;4.622;2023-03-31T07:05:23;2.97;;;1.30;;
48241;SDS011;34041;51.812;4.622;2023-03-31T07:08:26;6.85;;;1.63;;
48241;SDS011;34041;51.812;4.622;2023-03-31T07:11:26;4.68;;;1.58;;
48241;SDS011;34041;51.812;4.622;2023-03-31T07:14:26;4.13;;;1.10;;
48241;SDS011;34041;51.812;4.622;2023-03-31T07:17:27;3.03;;;1.17;;
48241;SDS011;34041;51.812;4.622;2023-03-31T07:20:27;2.88;;;1.10;;
48241;SDS011;34041;51.812;4.622;2023-03-31T07:23:28;2.88;;;1.20;;
48241;SDS011;34041;51.812;4.622;2023-03-31T07:26:28;3.25;;;1.17;;
48241;SDS011;34041;51.812;4.622;2023-03-31T07:29:29;2.88;;;1.00;;
48241;SDS011;34041;51.812;4.622;2023-03-31T07:32:29;1.83;;;0.80;;
48241;SDS011;34041;51.812;4.622;2023-03-31T07:35:29;2.00;;;0.77;;
48241;SDS011;34041;51.812;4.622;2023-03-31T07:38:30;3.00;;;1.10;;
48241;SDS011;34041;51.812;4.622;2023-03-31T07:41:30;2.40;;;0.97;;
48241;SDS011;34041;51.812;4.622;2023-03-31T07:44:33;4.63;;;1.30;;
48241;SDS011;34041;51.812;4.622;2023-03-31T07:47:34;3.03;;;0.90;;
48241;SDS011;34041;51.812;4.622;2023-03-31T07:50:34;3.17;;;1.20;;
48241;SDS011;34041;51.812;4.622;2023-03-31T07:53:35;5.28;;;1.55;;
48241;SDS011;34041;51.812;4.622;2023-03-31T07:56:36;3.43;;;1.10;;
48241;SDS011;34041;51.812;4.622;2023-03-31T07:59:37;3.58;;;1.67;;
48241;SDS011;34041;51.812;4.622;2023-03-31T08:02:37;3.50;;;1.20;;
48241;SDS011;34041;51.812;4.622;2023-03-31T08:05:38;3.45;;;1.10;;
48241;SDS011;34041;51.812;4.622;2023-03-31T08:08:38;5.10;;;1.40;;
48241;SDS011;34041;51.812;4.622;2023-03-31T08:11:42;4.55;;;1.70;;
48241;SDS011;34041;51.812;4.622;2023-03-31T08:14:42;8.02;;;2.38;;
48241;SDS011;34041;51.812;4.622;2023-03-31T08:17:43;5.93;;;1.98;;
48241;SDS011;34041;51.812;4.622;2023-03-31T08:20:43;5.55;;;1.63;;
48241;SDS011;34041;51.812;4.622;2023-03-31T08:23:44;7.33;;;2.37;;
48241;SDS011;34041;51.812;4.622;2023-03-31T08:26:44;8.80;;;2.20;;
48241;SDS011;34041;51.812;4.622;2023-03-31T08:29:45;10.15;;;2.40;;
48241;SDS011;34041;51.812;4.622;2023-03-31T08:32:45;7.50;;;2.53;;
48241;SDS011;34041;51.812;4.622;2023-03-31T08:35:45;6.35;;;2.72;;
48241;SDS011;34041;51.812;4.622;2023-03-31T08:38:45;5.13;;;1.80;;
48241;SDS011;34041;51.812;4.622;2023-03-31T08:41:57;6.63;;;2.13;;
48241;SDS011;34041;51.812;4.622;2023-03-31T08:45:04;5.32;;;2.28;;
48241;SDS011;34041;51.812;4.622;2023-03-31T08:48:08;6.53;;;2.38;;
48241;SDS011;34041;51.812;4.622;2023-03-31T08:51:17;9.32;;;2.83;;
48241;SDS011;34041;51.812;4.622;2023-03-31T08:54:31;9.70;;;3.33;;
48241;SDS011;34041;51.812;4.622;2023-03-31T08:57:44;6.70;;;2.28;;
48241;SDS011;34041;51.812;4.622;2023-03-31T09:00:50;6.27;;;2.87;;
48241;SDS011;34041;51.812;4.622;2023-03-31T09:06:57;9.18;;;3.40;;
48241;SDS011;34041;51.812;4.622;2023-03-31T09:22:37;6.88;;;2.08;;
48241;SDS011;34041;51.812;4.622;2023-03-31T09:25:38;10.15;;;2.92;;
48241;SDS011;34041;51.812;4.622;2023-03-31T09:28:40;7.60;;;2.67;;
48241;SDS011;34041;51.812;4.622;2023-03-31T09:31:42;8.15;;;2.85;;
48241;SDS011;34041;51.812;4.622;2023-03-31T09:34:42;6.95;;;2.15;;
48241;SDS011;34041;51.812;4.622;2023-03-31T09:37:44;11.20;;;3.13;;
48241;SDS011;34041;51.812;4.622;2023-03-31T09:40:44;6.63;;;2.40;;
48241;SDS011;34041;51.812;4.622;2023-03-31T09:43:45;4.97;;;1.83;;
48241;SDS011;34041;51.812;4.622;2023-03-31T09:46:46;7.28;;;3.10;;
48241;SDS011;34041;51.812;4.622;2023-03-31T09:49:46;8.48;;;3.25;;
48241;SDS011;34041;51.812;4.622;2023-03-31T09:52:50;6.78;;;2.60;;
48241;SDS011;34041;51.812;4.622;2023-03-31T09:55:52;8.75;;;2.55;;
48241;SDS011;34041;51.812;4.622;2023-03-31T09:58:52;7.93;;;3.17;;
48241;SDS011;34041;51.812;4.622;2023-03-31T10:01:55;7.30;;;2.20;;
48241;SDS011;34041;51.812;4.622;2023-03-31T10:04:57;7.20;;;2.70;;
48241;SDS011;34041;51.812;4.622;2023-03-31T10:11:13;9.25;;;2.92;;
48241;SDS011;34041;51.812;4.622;2023-03-31T10:14:13;7.22;;;2.10;;
48241;SDS011;34041;51.812;4.622;2023-03-31T10:17:15;8.15;;;2.20;;
48241;SDS011;34041;51.812;4.622;2023-03-31T10:20:20;10.50;;;3.20;;
48241;SDS011;34041;51.812;4.622;2023-03-31T10:23:28;8.30;;;3.28;;
48241;SDS011;34041;51.812;4.622;2023-03-31T10:26:29;6.53;;;2.28;;
48241;SDS011;34041;51.812;4.622;2023-03-31T10:29:30;7.63;;;2.50;;
48241;SDS011;34041;51.812;4.622;2023-03-31T10:32:31;8.23;;;2.20;;
48241;SDS011;34041;51.812;4.622;2023-03-31T10:35:32;10.02;;;2.97;;
48241;SDS011;34041;51.812;4.622;2023-03-31T10:38:37;5.40;;;2.33;;
48241;SDS011;34041;51.812;4.622;2023-03-31T10:41:41;7.68;;;2.47;;
48241;SDS011;34041;51.812;4.622;2023-03-31T10:44:42;7.53;;;2.63;;
48241;SDS011;34041;51.812;4.622;2023-03-31T10:47:42;6.32;;;2.17;;
48241;SDS011;34041;51.812;4.622;2023-03-31T10:50:47;7.72;;;2.72;;
48241;SDS011;34041;51.812;4.622;2023-03-31T10:53:54;7.60;;;2.53;;
48241;SDS011;34041;51.812;4.622;2023-03-31T10:56:56;7.65;;;2.53;;
48241;SDS011;34041;51.812;4.622;2023-03-31T11:06:28;8.38;;;2.80;;
48241;SDS011;34041;51.812;4.622;2023-03-31T11:12:49;8.55;;;2.47;;
48241;SDS011;34041;51.812;4.622;2023-03-31T11:28:37;7.35;;;2.20;;
48241;SDS011;34041;51.812;4.622;2023-03-31T11:31:47;8.40;;;1.90;;
48241;SDS011;34041;51.812;4.622;2023-03-31T11:34:56;7.85;;;2.50;;
48241;SDS011;34041;51.812;4.622;2023-03-31T11:38:08;7.18;;;2.45;;
48241;SDS011;34041;51.812;4.622;2023-03-31T11:41:13;7.13;;;2.55;;
48241;SDS011;34041;51.812;4.622;2023-03-31T11:44:15;6.43;;;1.65;;
48241;SDS011;34041;51.812;4.622;2023-03-31T11:47:16;11.02;;;3.40;;
48241;SDS011;34041;51.812;4.622;2023-03-31T11:50:24;9.30;;;3.30;;
48241;SDS011;34041;51.812;4.622;2023-03-31T11:53:28;7.05;;;1.83;;
48241;SDS011;34041;51.812;4.622;2023-03-31T11:56:34;5.57;;;3.20;;
48241;SDS011;34041;51.812;4.622;2023-03-31T11:59:35;3.58;;;1.63;;
48241;SDS011;34041;51.812;4.622;2023-03-31T12:02:42;6.57;;;2.22;;
48241;SDS011;34041;51.812;4.622;2023-03-31T12:05:52;5.80;;;2.25;;
48241;SDS011;34041;51.812;4.622;2023-03-31T12:12:09;5.82;;;1.83;;
48241;SDS011;34041;51.812;4.622;2023-03-31T12:18:17;5.78;;;1.95;;
48241;SDS011;34041;51.812;4.622;2023-03-31T12:21:19;7.03;;;2.50;;
48241;SDS011;34041;51.812;4.622;2023-03-31T12:24:20;7.03;;;2.75;;
48241;SDS011;34041;51.812;4.622;2023-03-31T12:33:26;6.77;;;1.93;;
48241;SDS011;34041;51.812;4.622;2023-03-31T12:39:52;5.35;;;1.85;;
48241;SDS011;34041;51.812;4.622;2023-03-31T12:49:42;6.38;;;2.05;;
48241;SDS011;34041;51.812;4.622;2023-03-31T12:55:56;5.80;;;2.22;;
48241;SDS011;34041;51.812;4.622;2023-03-31T12:59:15;3.85;;;1.58;;
48241;SDS011;34041;51.812;4.622;2023-03-31T13:02:24;4.53;;;1.67;;
48241;SDS011;34041;51.812;4.622;2023-03-31T13:08:55;7.32;;;2.30;;
48241;SDS011;34041;51.812;4.622;2023-03-31T13:11:56;4.00;;;1.35;;
48241;SDS011;34041;51.812;4.622;2023-03-31T13:14:56;4.40;;;2.03;;
48241;SDS011;34041;51.812;4.622;2023-03-31T13:18:03;6.25;;;1.90;;
48241;SDS011;34041;51.812;4.622;2023-03-31T13:21:04;7.28;;;2.50;;
48241;SDS011;34041;51.812;4.622;2023-03-31T13:24:06;5.38;;;1.67;;
48241;SDS011;34041;51.812;4.622;2023-03-31T13:36:42;6.15;;;2.08;;
48241;SDS011;34041;51.812;4.622;2023-03-31T13:40:05;3.35;;;1.58;;
48241;SDS011;34041;51.812;4.622;2023-03-31T13:43:11;5.22;;;2.40;;
48241;SDS011;34041;51.812;4.622;2023-03-31T13:55:51;4.55;;;1.60;;
48241;SDS011;34041;51.812;4.622;2023-03-31T13:59:13;5.70;;;2.20;;
48241;SDS011;34041;51.812;4.622;2023-03-31T14:05:47;3.88;;;1.85;;
48241;SDS011;34041;51.812;4.622;2023-03-31T14:08:50;5.65;;;1.77;;
48241;SDS011;34041;51.812;4.622;2023-03-31T14:11:51;3.97;;;1.88;;
48241;SDS011;34041;51.812;4.622;2023-03-31T14:14:52;4.07;;;1.93;;
48241;SDS011;34041;51.812;4.622;2023-03-31T14:17:52;7.03;;;1.98;;
48241;SDS011;34041;51.812;4.622;2023-03-31T14:21:07;4.22;;;2.13;;
48241;SDS011;34041;51.812;4.622;2023-03-31T14:27:37;5.47;;;2.60;;
48241;SDS011;34041;51.812;4.622;2023-03-31T14:36:57;5.18;;;2.67;;
48241;SDS011;34041;51.812;4.622;2023-03-31T14:39:58;6.10;;;2.58;;
48241;SDS011;34041;51.812;4.622;2023-03-31T14:43:00;5.68;;;2.67;;
48241;SDS011;34041;51.812;4.622;2023-03-31T14:46:05;5.50;;;2.33;;
48241;SDS011;34041;51.812;4.622;2023-03-31T14:49:19;5.03;;;2.72;;
48241;SDS011;34041;51.812;4.622;2023-03-31T14:52:20;6.35;;;3.08;;
48241;SDS011;34041;51.812;4.622;2023-03-31T14:55:25;6.60;;;3.38;;
48241;SDS011;34041;51.812;4.622;2023-03-31T14:58:28;5.97;;;2.75;;
48241;SDS011;34041;51.812;4.622;2023-03-31T15:01:30;6.63;;;3.00;;
48241;SDS011;34041;51.812;4.622;2023-03-31T15:04:36;5.60;;;3.00;;
48241;SDS011;34041;51.812;4.622;2023-03-31T15:07:43;6.32;;;2.85;;
48241;SDS011;34041;51.812;4.622;2023-03-31T15:10:44;6.75;;;3.20;;
48241;SDS011;34041;51.812;4.622;2023-03-31T15:13:47;6.40;;;3.47;;
48241;SDS011;34041;51.812;4.622;2023-03-31T15:16:48;7.68;;;3.55;;
48241;SDS011;34041;51.812;4.622;2023-03-31T15:19:56;7.55;;;3.33;;
48241;SDS011;34041;51.812;4.622;2023-03-31T15:22:57;5.68;;;3.00;;
48241;SDS011;34041;51.812;4.622;2023-03-31T15:25:58;8.55;;;3.65;;
48241;SDS011;34041;51.812;4.622;2023-03-31T15:29:03;7.93;;;3.28;;
48241;SDS011;34041;51.812;4.622;2023-03-31T15:32:06;7.43;;;4.27;;
48241;SDS011;34041;51.812;4.622;2023-03-31T15:35:10;9.13;;;3.88;;
48241;SDS011;34041;51.812;4.622;2023-03-31T15:38:17;7.07;;;3.28;;
48241;SDS011;34041;51.812;4.622;2023-03-31T15:41:17;8.50;;;4.10;;
48241;SDS011;34041;51.812;4.622;2023-03-31T15:44:28;7.40;;;4.20;;
48241;SDS011;34041;51.812;4.622;2023-03-31T15:47:29;8.43;;;3.47;;
48241;SDS011;34041;51.812;4.622;2023-03-31T15:50:29;6.15;;;3.15;;
48241;SDS011;34041;51.812;4.622;2023-03-31T15:56:41;8.95;;;3.75;;
48241;SDS011;34041;51.812;4.622;2023-03-31T15:59:46;7.82;;;3.80;;
48241;SDS011;34041;51.812;4.622;2023-03-31T16:02:48;8.18;;;4.20;;
48241;SDS011;34041;51.812;4.622;2023-03-31T16:05:55;7.97;;;4.05;;
48241;SDS011;34041;51.812;4.622;2023-03-31T16:08:58;9.30;;;4.93;;
48241;SDS011;34041;51.812;4.622;2023-03-31T16:12:00;7.68;;;3.40;;
48241;SDS011;34041;51.812;4.622;2023-03-31T16:15:27;9.25;;;3.97;;
48241;SDS011;34041;51.812;4.622;2023-03-31T16:18:32;7.75;;;3.70;;
48241;SDS011;34041;51.812;4.622;2023-03-31T16:21:36;8.68;;;4.40;;
48241;SDS011;34041;51.812;4.622;2023-03-31T16:24:38;9.90;;;4.13;;
48241;SDS011;34041;51.812;4.622;2023-03-31T16:27:39;9.55;;;4.22;;
48241;SDS011;34041;51.812;4.622;2023-03-31T16:30:41;8.60;;;3.78;;
48241;SDS011;34041;51.812;4.622;2023-03-31T16:33:52;6.88;;;4.03;;
48241;SDS011;34041;51.812;4.622;2023-03-31T16:36:52;7.43;;;3.90;;
48241;SDS011;34041;51.812;4.622;2023-03-31T16:39:54;6.82;;;4.18;;
48241;SDS011;34041;51.812;4.622;2023-03-31T16:46:10;8.77;;;4.00;;
48241;SDS011;34041;51.812;4.622;2023-03-31T16:49:11;8.20;;;3.42;;
48241;SDS011;34041;51.812;4.622;2023-03-31T16:52:11;9.48;;;5.03;;
48241;SDS011;34041;51.812;4.622;2023-03-31T16:55:11;10.50;;;4.43;;
48241;SDS011;34041;51.812;4.622;2023-03-31T16:58:11;6.97;;;3.67;;
48241;SDS011;34041;51.812;4.622;2023-03-31T17:01:13;7.57;;;3.70;;
48241;SDS011;34041;51.812;4.622;2023-03-31T17:04:13;7.70;;;3.60;;
48241;SDS011;34041;51.812;4.622;2023-03-31T17:07:13;8.00;;;3.90;;
48241;SDS011;34041;51.812;4.622;2023-03-31T17:10:14;7.85;;;3.70;;
48241;SDS011;34041;51.812;4.622;2023-03-31T17:13:15;7.13;;;3.30;;
48241;SDS011;34041;51.812;4.622;2023-03-31T17:16:15;5.57;;;2.53;;
48241;SDS011;34041;51.812;4.622;2023-03-31T17:19:16;8.20;;;4.25;;
48241;SDS011;34041;51.812;4.622;2023-03-31T17:22:17;8.43;;;3.90;;
48241;SDS011;34041;51.812;4.622;2023-03-31T17:25:17;6.80;;;3.57;;
48241;SDS011;34041;51.812;4.622;2023-03-31T17:28:18;7.65;;;3.85;;
48241;SDS011;34041;51.812;4.622;2023-03-31T17:31:19;10.20;;;4.32;;
48241;SDS011;34041;51.812;4.622;2023-03-31T17:34:20;7.05;;;3.92;;
48241;SDS011;34041;51.812;4.622;2023-03-31T17:37:21;8.57;;;3.47;;
48241;SDS011;34041;51.812;4.622;2023-03-31T17:40:22;6.80;;;3.22;;
48241;SDS011;34041;51.812;4.622;2023-03-31T17:43:22;6.57;;;3.08;;
48241;SDS011;34041;51.812;4.622;2023-03-31T17:46:23;7.28;;;3.47;;
48241;SDS011;34041;51.812;4.622;2023-03-31T17:49:23;7.57;;;3.53;;
48241;SDS011;34041;51.812;4.622;2023-03-31T17:52:25;8.48;;;3.50;;
48241;SDS011;34041;51.812;4.622;2023-03-31T17:55:25;9.23;;;3.60;;
48241;SDS011;34041;51.812;4.622;2023-03-31T17:58:26;6.63;;;3.58;;
48241;SDS011;34041;51.812;4.622;2023-03-31T18:01:26;6.53;;;3.70;;
48241;SDS011;34041;51.812;4.622;2023-03-31T18:04:26;6.83;;;2.90;;
48241;SDS011;34041;51.812;4.622;2023-03-31T18:07:27;8.05;;;3.30;;
48241;SDS011;34041;51.812;4.622;2023-03-31T18:10:27;8.52;;;3.40;;
48241;SDS011;34041;51.812;4.622;2023-03-31T18:13:28;6.43;;;3.33;;
48241;SDS011;34041;51.812;4.622;2023-03-31T18:16:29;6.05;;;3.17;;
48241;SDS011;34041;51.812;4.622;2023-03-31T18:19:30;6.95;;;3.00;;
48241;SDS011;34041;51.812;4.622;2023-03-31T18:22:30;8.40;;;3.20;;
48241;SDS011;34041;51.812;4.622;2023-03-31T18:25:31;8.57;;;3.30;;
48241;SDS011;34041;51.812;4.622;2023-03-31T18:28:32;10.03;;;3.27;;
48241;SDS011;34041;51.812;4.622;2023-03-31T18:31:32;7.50;;;3.55;;
48241;SDS011;34041;51.812;4.622;2023-03-31T18:34:32;6.82;;;3.22;;
48241;SDS011;34041;51.812;4.622;2023-03-31T18:37:35;8.57;;;3.03;;
48241;SDS011;34041;51.812;4.622;2023-03-31T18:40:35;7.83;;;3.20;;
48241;SDS011;34041;51.812;4.622;2023-03-31T18:43:36;5.43;;;2.85;;
48241;SDS011;34041;51.812;4.622;2023-03-31T18:46:37;5.85;;;2.70;;
48241;SDS011;34041;51.812;4.622;2023-03-31T18:49:37;6.05;;;2.83;;
48241;SDS011;34041;51.812;4.622;2023-03-31T18:52:38;9.37;;;3.80;;
48241;SDS011;34041;51.812;4.622;2023-03-31T18:55:38;7.10;;;3.10;;
48241;SDS011;34041;51.812;4.622;2023-03-31T18:58:38;7.10;;;3.08;;
48241;SDS011;34041;51.812;4.622;2023-03-31T19:01:38;7.57;;;3.80;;
48241;SDS011;34041;51.812;4.622;2023-03-31T19:04:39;7.38;;;3.00;;
48241;SDS011;34041;51.812;4.622;2023-03-31T19:07:39;7.72;;;3.13;;
48241;SDS011;34041;51.812;4.622;2023-03-31T19:10:40;8.95;;;3.30;;
48241;SDS011;34041;51.812;4.622;2023-03-31T19:13:40;10.00;;;4.15;;
48241;SDS011;34041;51.812;4.622;2023-03-31T19:16:41;7.28;;;2.90;;
48241;SDS011;34041;51.812;4.622;2023-03-31T19:19:43;6.82;;;2.85;;
48241;SDS011;34041;51.812;4.622;2023-03-31T19:22:46;5.70;;;3.10;;
48241;SDS011;34041;51.812;4.622;2023-03-31T19:25:49;11.32;;;3.47;;
48241;SDS011;34041;51.812;4.622;2023-03-31T19:28:49;8.68;;;3.83;;
48241;SDS011;34041;51.812;4.622;2023-03-31T19:31:50;9.27;;;2.93;;
48241;SDS011;34041;51.812;4.622;2023-03-31T19:34:50;9.65;;;4.10;;
48241;SDS011;34041;51.812;4.622;2023-03-31T19:37:51;8.98;;;3.55;;
48241;SDS011;34041;51.812;4.622;2023-03-31T19:40:52;10.80;;;3.30;;
48241;SDS011;34041;51.812;4.622;2023-03-31T19:43:52;8.07;;;3.03;;
48241;SDS011;34041;51.812;4.622;2023-03-31T19:46:53;6.47;;;2.70;;
48241;SDS011;34041;51.812;4.622;2023-03-31T19:49:53;8.70;;;2.78;;
48241;SDS011;34041;51.812;4.622;2023-03-31T19:52:53;6.10;;;2.65;;
48241;SDS011;34041;51.812;4.622;2023-03-31T19:55:57;5.23;;;2.77;;
48241;SDS011;34041;51.812;4.622;2023-03-31T19:58:58;6.38;;;2.58;;
48241;SDS011;34041;51.812;4.622;2023-03-31T20:01:58;6.88;;;2.65;;
48241;SDS011;34041;51.812;4.622;2023-03-31T20:05:01;10.52;;;3.25;;
48241;SDS011;34041;51.812;4.622;2023-03-31T20:08:01;7.78;;;3.10;;
48241;SDS011;34041;51.812;4.622;2023-03-31T20:11:02;7.07;;;2.20;;
48241;SDS011;34041;51.812;4.622;2023-03-31T20:14:03;8.40;;;2.30;;
48241;SDS011;34041;51.812;4.622;2023-03-31T20:17:03;8.30;;;3.22;;
48241;SDS011;34041;51.812;4.622;2023-03-31T20:20:05;7.78;;;2.65;;
48241;SDS011;34041;51.812;4.622;2023-03-31T20:23:07;6.40;;;2.72;;
48241;SDS011;34041;51.812;4.622;2023-03-31T20:26:09;5.88;;;2.35;;
48241;SDS011;34041;51.812;4.622;2023-03-31T20:29:09;4.43;;;1.83;;
48241;SDS011;34041;51.812;4.622;2023-03-31T20:32:10;6.57;;;2.78;;
48241;SDS011;34041;51.812;4.622;2023-03-31T20:35:10;4.78;;;1.75;;